createdAt,value
2023-01-03T00:01:17.180Z,67.35
2023-01-03T00:03:45.177Z,67.47
2023-01-03T00:06:17.472Z,67.32
2023-01-03T00:08:45.530Z,67.40
2023-01-03T00:11:14.015Z,67.42
2023-01-03T00:13:41.118Z,67.31
2023-01-03T00:16:17.908Z,67.49
2023-01-03T00:18:45.943Z,67.43
2023-01-03T00:21:13.917Z,67.45
2023-01-03T00:23:41.730Z,67.40
2023-01-03T00:26:11.066Z,67.26
2023-01-03T00:28:39.413Z,67.35
2023-01-03T00:31:08.527Z,67.17
2023-01-03T00:33:38.674Z,67.31
2023-01-03T00:36:09.213Z,67.22
2023-01-03T00:38:37.979Z,67.48
2023-01-03T00:41:06.782Z,67.26
2023-01-03T00:43:35.235Z,67.42
2023-01-03T00:46:03.548Z,67.38
2023-01-03T00:48:31.733Z,66.97
2023-01-03T00:51:06.732Z,67.09
2023-01-03T00:53:34.812Z,67.17
2023-01-03T00:56:06.230Z,67.35
2023-01-03T00:58:34.799Z,67.00
2023-01-03T01:01:06.481Z,67.18
2023-01-03T01:03:34.633Z,67.16
2023-01-03T01:06:12.133Z,66.78
2023-01-03T01:08:39.943Z,66.91
2023-01-03T01:11:08.195Z,67.29
2023-01-03T01:13:36.700Z,67.12
2023-01-03T01:16:06.179Z,66.98
2023-01-03T01:18:34.292Z,67.10
2023-01-03T01:21:05.800Z,67.15
2023-01-03T01:23:33.607Z,66.73
2023-01-03T01:26:01.695Z,66.76
2023-01-03T01:28:29.640Z,67.10
2023-01-03T01:30:59.600Z,66.96
2023-01-03T01:33:27.580Z,67.13
2023-01-03T01:35:55.711Z,66.92
2023-01-03T01:38:24.942Z,66.78
2023-01-03T01:40:52.742Z,66.74
2023-01-03T01:43:41.119Z,66.60
2023-01-03T01:46:17.403Z,66.82
2023-01-03T01:48:45.320Z,66.26
2023-01-03T01:51:14.201Z,66.57
2023-01-03T01:53:44.181Z,66.17
2023-01-03T01:56:18.403Z,67.04
2023-01-03T01:58:49.500Z,66.71
2023-01-03T02:01:20.388Z,66.60
2023-01-03T02:03:55.461Z,66.76
2023-01-03T02:06:25.482Z,66.79
2023-01-03T02:08:54.623Z,66.67
2023-01-03T02:11:34.793Z,66.65
2023-01-03T02:14:15.527Z,66.69
2023-01-03T02:17:01.519Z,66.26
2023-01-03T02:19:58.332Z,66.29
2023-01-03T02:22:48.044Z,66.80
2023-01-03T02:26:06.478Z,66.65
2023-01-03T02:29:03.139Z,66.26
2023-01-03T02:31:39.462Z,66.60
2023-01-03T02:34:21.384Z,66.15
2023-01-03T02:37:00.188Z,66.13
2023-01-03T02:39:32.789Z,66.14
2023-01-03T02:42:22.706Z,66.65
2023-01-03T02:44:59.322Z,66.51
2023-01-03T02:47:38.315Z,66.39
2023-01-03T02:50:10.652Z,66.42
2023-01-03T02:52:41.108Z,66.30
2023-01-03T02:55:14.633Z,66.14
2023-01-03T02:57:47.619Z,66.25
2023-01-03T03:00:19.351Z,66.38
2023-01-03T03:02:52.115Z,66.30
2023-01-03T03:05:25.928Z,65.99
2023-01-03T03:07:54.006Z,66.02
2023-01-03T03:10:40.637Z,65.70
2023-01-03T03:13:17.023Z,65.91
2023-01-03T03:15:55.984Z,66.26
2023-01-03T03:18:32.482Z,66.11
2023-01-03T03:21:20.207Z,66.08
2023-01-03T03:24:07.597Z,66.08
2023-01-03T03:26:38.457Z,66.00
2023-01-03T03:29:10.769Z,65.69
2023-01-03T03:31:42.405Z,65.71
2023-01-03T03:34:14.288Z,65.83
2023-01-03T03:36:49.526Z,65.45
2023-01-03T03:39:35.890Z,66.01
2023-01-03T03:42:32.962Z,65.58
2023-01-03T03:45:10.482Z,65.42
2023-01-03T03:47:45.805Z,65.85
2023-01-03T03:50:22.377Z,65.66
2023-01-03T03:52:56.067Z,66.13
2023-01-03T03:55:26.953Z,66.03
2023-01-03T03:58:00.670Z,66.03
2023-01-03T04:00:33.972Z,65.69
2023-01-03T04:03:03.783Z,65.47
2023-01-03T04:05:37.269Z,65.93
2023-01-03T04:08:05.333Z,65.57
2023-01-03T04:10:37.738Z,66.12
2023-01-03T04:13:06.522Z,65.59
2023-01-03T04:15:34.320Z,65.25
2023-01-03T04:18:02.627Z,65.81
2023-01-03T04:20:30.825Z,65.65
2023-01-03T04:22:59.968Z,66.04
2023-01-03T04:25:27.883Z,65.95
2023-01-03T04:27:55.604Z,65.87
2023-01-03T04:30:23.581Z,65.91
2023-01-03T04:32:51.355Z,65.52
2023-01-03T04:35:19.152Z,66.20
2023-01-03T04:37:47.043Z,65.74
2023-01-03T04:40:16.372Z,65.52
2023-01-03T04:43:02.014Z,66.15
2023-01-03T04:45:29.861Z,65.50
2023-01-03T04:47:57.655Z,65.43
2023-01-03T04:50:25.628Z,65.50
2023-01-03T04:52:53.471Z,65.93
2023-01-03T04:55:22.624Z,66.13
2023-01-03T04:57:50.533Z,65.94
2023-01-03T05:00:18.689Z,65.97
2023-01-03T05:02:46.678Z,66.05
2023-01-03T05:05:14.509Z,66.34
2023-01-03T05:07:42.284Z,66.47
2023-01-03T05:10:10.382Z,65.88
2023-01-03T05:12:39.617Z,65.89
2023-01-03T05:15:08.680Z,66.47
2023-01-03T05:17:36.488Z,66.61
2023-01-03T05:20:22.262Z,66.32
2023-01-03T05:23:07.405Z,66.19
2023-01-03T05:25:53.180Z,65.90
2023-01-03T05:28:25.039Z,66.26
2023-01-03T05:30:52.818Z,66.60
2023-01-03T05:33:20.603Z,66.78
2023-01-03T05:35:49.019Z,66.56
2023-01-03T05:38:16.809Z,66.51
2023-01-03T05:40:44.784Z,66.82
2023-01-03T05:43:12.911Z,66.78
2023-01-03T05:45:42.424Z,66.63
2023-01-03T05:48:10.799Z,66.10
2023-01-03T05:50:39.176Z,66.22
2023-01-03T05:53:06.954Z,66.32
2023-01-03T05:55:37.016Z,66.89
2023-01-03T05:58:05.571Z,66.44
2023-01-03T06:00:33.399Z,66.15
2023-01-03T06:03:02.675Z,66.82
2023-01-03T06:05:30.666Z,66.60
2023-01-03T06:08:00.985Z,67.10
2023-01-03T06:10:28.882Z,67.09
2023-01-03T06:12:57.141Z,66.25
2023-01-03T06:15:25.041Z,66.91
2023-01-03T06:17:54.966Z,67.18
2023-01-03T06:20:24.711Z,66.45
2023-01-03T06:22:54.207Z,67.10
2023-01-03T06:25:22.807Z,66.76
2023-01-03T06:27:50.612Z,66.81
2023-01-03T06:30:18.918Z,66.85
2023-01-03T06:32:46.924Z,67.44
2023-01-03T06:35:14.735Z,67.10
2023-01-03T06:37:44.075Z,66.99
2023-01-03T06:40:12.753Z,66.65
2023-01-03T06:42:42.461Z,66.92
2023-01-03T06:45:30.594Z,66.75
2023-01-03T06:48:19.056Z,66.90
2023-01-03T06:51:04.397Z,66.57
2023-01-03T06:53:36.403Z,66.59
2023-01-03T06:56:04.889Z,66.82
2023-01-03T06:58:32.824Z,67.34
2023-01-03T07:01:03.513Z,67.49
2023-01-03T07:03:31.388Z,66.85
2023-01-03T07:05:59.232Z,66.93
2023-01-03T07:08:27.084Z,67.11
2023-01-03T07:10:57.035Z,67.21
2023-01-03T07:13:42.425Z,67.45
2023-01-03T07:16:15.272Z,67.44
2023-01-03T07:18:44.991Z,67.81
2023-01-03T07:21:14.930Z,67.58
2023-01-03T07:23:43.067Z,68.05
2023-01-03T07:26:12.650Z,67.60
2023-01-03T07:28:40.423Z,67.24
2023-01-03T07:31:08.826Z,67.96
2023-01-03T07:33:39.184Z,67.20
2023-01-03T07:36:12.079Z,67.84
2023-01-03T07:38:42.031Z,67.54
2023-01-03T07:41:10.696Z,67.29
2023-01-03T07:43:41.774Z,67.73
2023-01-03T07:46:11.737Z,67.97
2023-01-03T07:48:40.248Z,67.77
2023-01-03T07:51:09.531Z,67.88
2023-01-03T07:53:37.832Z,67.45
2023-01-03T07:56:12.620Z,67.48
2023-01-03T07:58:44.318Z,67.46
2023-01-03T08:01:14.365Z,67.61
2023-01-03T08:03:43.122Z,68.10
2023-01-03T08:06:13.475Z,67.45
2023-01-03T08:08:41.906Z,67.88
2023-01-03T08:11:30.369Z,68.27
2023-01-03T08:14:00.403Z,68.06
2023-01-03T08:16:28.445Z,68.46
2023-01-03T08:18:56.295Z,67.69
2023-01-03T08:21:24.052Z,68.40
2023-01-03T08:23:51.828Z,68.60
2023-01-03T08:26:21.088Z,68.15
2023-01-03T08:28:48.854Z,67.87
2023-01-03T08:31:20.674Z,67.86
2023-01-03T08:33:51.432Z,68.50
2023-01-03T08:36:20.915Z,68.05
2023-01-03T08:38:51.713Z,67.91
2023-01-03T08:41:23.919Z,67.96
2023-01-03T08:43:51.850Z,68.36
2023-01-03T08:46:21.670Z,68.27
2023-01-03T08:48:49.683Z,68.00
2023-01-03T08:51:17.587Z,67.44
2023-01-03T08:53:45.446Z,67.36
2023-01-03T08:56:13.616Z,66.86
2023-01-03T08:58:41.447Z,65.80
2023-01-03T09:01:11.519Z,66.22
2023-01-03T09:03:41.836Z,65.43
2023-01-03T09:06:09.837Z,64.31
2023-01-03T09:08:37.623Z,64.08
2023-01-03T09:11:06.352Z,63.66
2023-01-03T09:13:34.369Z,63.30
2023-01-03T09:16:02.912Z,63.00
2023-01-03T09:18:30.874Z,62.53
2023-01-03T09:21:00.124Z,62.54
2023-01-03T09:23:27.887Z,62.30
2023-01-03T09:25:55.737Z,62.27
2023-01-03T09:28:23.669Z,62.11
2023-01-03T09:30:51.522Z,62.23
2023-01-03T09:33:19.680Z,62.09
2023-01-03T09:35:47.422Z,62.05
2023-01-03T09:38:16.620Z,62.05
2023-01-03T09:40:47.160Z,62.12
2023-01-03T09:43:23.040Z,61.93
2023-01-03T09:45:55.190Z,62.39
2023-01-03T09:48:29.989Z,62.50
2023-01-03T09:51:18.478Z,63.04
2023-01-03T09:54:04.403Z,63.99
2023-01-03T09:56:50.906Z,64.84
2023-01-03T09:59:37.518Z,65.08
2023-01-03T10:02:44.247Z,65.82
2023-01-03T10:05:30.746Z,66.44
2023-01-03T10:08:18.375Z,66.42
2023-01-03T10:10:58.556Z,66.79
2023-01-03T10:13:41.671Z,66.67
2023-01-03T10:16:19.091Z,66.93
2023-01-03T10:19:04.696Z,67.69
2023-01-03T10:21:43.233Z,67.77
2023-01-03T10:24:19.223Z,67.50
2023-01-03T10:26:50.264Z,67.90
2023-01-03T10:29:20.214Z,68.18
2023-01-03T10:32:04.300Z,67.95
2023-01-03T10:34:32.154Z,68.00
2023-01-03T10:36:59.967Z,67.95
2023-01-03T10:39:32.289Z,68.09
2023-01-03T10:42:01.550Z,68.13
2023-01-03T10:44:31.572Z,68.25
2023-01-03T10:47:08.886Z,68.97
2023-01-03T10:49:37.186Z,68.79
2023-01-03T10:52:13.228Z,68.86
2023-01-03T10:54:50.075Z,68.46
2023-01-03T10:57:43.723Z,68.69
2023-01-03T11:00:28.855Z,68.86
2023-01-03T11:03:02.491Z,68.91
2023-01-03T11:05:30.580Z,69.43
2023-01-03T11:08:01.674Z,68.94
2023-01-03T11:10:38.482Z,69.25
2023-01-03T11:13:22.608Z,69.02
2023-01-03T11:15:55.416Z,69.20
2023-01-03T11:18:23.737Z,69.45
2023-01-03T11:20:56.953Z,69.45
2023-01-03T11:23:34.487Z,69.24
2023-01-03T11:26:13.022Z,69.66
2023-01-03T11:29:24.548Z,69.28
2023-01-03T11:31:58.380Z,69.50
2023-01-03T11:35:20.731Z,69.28
2023-01-03T11:37:41.093Z,69.49
2023-01-03T11:40:17.859Z,69.44
2023-01-03T11:42:59.902Z,69.40
2023-01-03T11:45:49.805Z,69.43
2023-01-03T11:48:35.469Z,70.10
2023-01-03T11:51:14.267Z,69.79
2023-01-03T11:53:54.356Z,69.93
2023-01-03T11:56:29.090Z,69.83
2023-01-03T11:59:29.091Z,70.13
2023-01-03T12:02:32.790Z,70.22
2023-01-03T12:05:13.617Z,69.75
2023-01-03T12:07:54.562Z,70.26
2023-01-03T12:10:29.362Z,70.16
2023-01-03T12:13:16.743Z,69.80
2023-01-03T12:15:46.744Z,70.10
2023-01-03T12:18:26.214Z,70.30
2023-01-03T12:20:59.989Z,69.86
2023-01-03T12:23:38.700Z,69.80
2023-01-03T12:26:09.807Z,70.20
2023-01-03T12:28:48.548Z,69.78
2023-01-03T12:31:31.326Z,70.26
2023-01-03T12:34:12.235Z,70.28
2023-01-03T12:36:46.563Z,70.24
2023-01-03T12:39:39.060Z,70.26
2023-01-03T12:42:15.882Z,70.04
2023-01-03T12:44:45.459Z,70.30
2023-01-03T12:47:29.882Z,70.58
2023-01-03T12:50:04.675Z,69.91
2023-01-03T12:52:35.378Z,70.13
2023-01-03T12:55:09.396Z,70.14
2023-01-03T12:57:55.183Z,69.76
2023-01-03T13:00:36.163Z,68.49
2023-01-03T13:03:08.913Z,67.87
2023-01-03T13:05:48.169Z,67.41
2023-01-03T13:08:24.208Z,66.83
2023-01-03T13:10:56.155Z,65.95
2023-01-03T13:13:24.151Z,65.45
2023-01-03T13:15:52.045Z,64.86
2023-01-03T13:18:32.970Z,64.50
2023-01-03T13:21:02.327Z,64.27
2023-01-03T13:23:46.592Z,63.66
2023-01-03T13:26:22.897Z,63.54
2023-01-03T13:28:51.555Z,63.29
2023-01-03T13:31:40.844Z,63.11
2023-01-03T13:34:39.474Z,62.98
2023-01-03T13:37:18.197Z,63.19
2023-01-03T13:39:58.335Z,63.15
2023-01-03T13:42:31.105Z,62.84
2023-01-03T13:45:35.600Z,62.83
2023-01-03T13:48:18.553Z,62.49
2023-01-03T13:51:10.876Z,62.57
2023-01-03T13:53:52.950Z,62.77
2023-01-03T13:56:24.100Z,63.14
2023-01-03T13:58:53.652Z,63.59
2023-01-03T14:01:33.300Z,64.56
2023-01-03T14:04:23.895Z,65.07
2023-01-03T14:07:25.423Z,65.90
2023-01-03T14:10:13.698Z,66.23
2023-01-03T14:13:15.726Z,66.69
2023-01-03T14:15:44.015Z,67.01
2023-01-03T14:18:20.921Z,67.40
2023-01-03T14:20:52.531Z,67.50
2023-01-03T14:26:16.087Z,67.68
2023-01-03T14:28:49.388Z,68.04
2023-01-03T14:31:20.618Z,67.93
2023-01-03T14:33:54.923Z,67.91
2023-01-03T14:36:22.979Z,67.83
2023-01-03T14:38:52.509Z,67.17
2023-01-03T14:41:29.572Z,66.44
2023-01-03T14:44:01.513Z,65.75
2023-01-03T14:46:30.979Z,65.42
2023-01-03T14:49:03.470Z,64.90
2023-01-03T14:51:34.499Z,63.88
2023-01-03T14:54:03.227Z,63.66
2023-01-03T14:56:33.361Z,62.90
2023-01-03T14:59:02.147Z,62.88
2023-01-03T15:01:30.522Z,62.82
2023-01-03T15:04:00.366Z,63.05
2023-01-03T15:06:30.978Z,64.08
2023-01-03T15:09:00.503Z,65.00
2023-01-03T15:11:35.274Z,65.10
2023-01-03T15:14:06.100Z,65.44
2023-01-03T15:16:37.070Z,65.91
2023-01-03T15:19:13.423Z,66.35
2023-01-03T15:21:42.728Z,66.48
2023-01-03T15:24:17.803Z,66.76
2023-01-03T15:26:49.131Z,66.97
2023-01-03T15:29:19.443Z,66.95
2023-01-03T15:31:49.903Z,67.18
2023-01-03T15:34:19.733Z,67.89
2023-01-03T15:36:50.541Z,67.43
2023-01-03T15:39:20.499Z,67.27
2023-01-03T15:44:56.321Z,67.61
2023-01-03T15:47:27.442Z,67.86
2023-01-03T15:50:00.849Z,67.76
2023-01-03T15:52:28.665Z,67.87
2023-01-03T15:54:56.632Z,68.06
2023-01-03T15:57:30.972Z,68.38
2023-01-03T16:00:02.975Z,68.90
2023-01-03T16:02:31.606Z,68.06
2023-01-03T16:04:59.643Z,68.22
2023-01-03T16:07:27.894Z,68.66
2023-01-03T16:09:55.737Z,68.08
2023-01-03T16:12:31.429Z,68.17
2023-01-03T16:14:59.413Z,68.28
2023-01-03T16:17:29.262Z,68.63
2023-01-03T16:19:59.561Z,68.28
2023-01-03T16:22:36.467Z,68.40
2023-01-03T16:25:06.555Z,68.75
2023-01-03T16:27:35.952Z,68.25
2023-01-03T16:30:03.768Z,68.02
2023-01-03T16:32:31.993Z,68.48
2023-01-03T16:35:02.214Z,68.38
2023-01-03T16:37:30.040Z,68.16
2023-01-03T16:39:58.381Z,68.48
2023-01-03T16:42:28.521Z,67.92
2023-01-03T16:44:58.099Z,68.48
2023-01-03T16:47:30.341Z,69.01
2023-01-03T16:50:01.896Z,68.56
2023-01-03T16:52:34.335Z,68.47
2023-01-03T16:55:05.276Z,68.63
2023-01-03T16:57:33.292Z,68.60
2023-01-03T17:00:02.729Z,69.07
2023-01-03T17:02:30.761Z,68.53
2023-01-03T17:04:58.597Z,68.09
2023-01-03T17:07:26.526Z,68.41
2023-01-03T17:09:54.332Z,68.75
2023-01-03T17:12:24.867Z,68.03
2023-01-03T17:14:53.262Z,67.41
2023-01-03T17:17:24.442Z,66.94
2023-01-03T17:20:07.770Z,66.29
2023-01-03T17:22:35.800Z,65.73
2023-01-03T17:25:03.605Z,65.09
2023-01-03T17:27:32.880Z,64.54
2023-01-03T17:30:05.012Z,63.96
2023-01-03T17:32:34.381Z,63.31
2023-01-03T17:35:03.194Z,63.06
2023-01-03T17:37:45.474Z,63.68
2023-01-03T17:40:27.648Z,64.74
2023-01-03T17:42:59.920Z,65.29
2023-01-03T17:45:45.520Z,65.44
2023-01-03T17:48:32.862Z,65.49
2023-01-03T17:51:02.184Z,66.74
2023-01-03T17:53:30.640Z,65.94
2023-01-03T17:55:58.697Z,66.19
2023-01-03T17:58:34.711Z,66.35
2023-01-03T18:01:03.123Z,67.14
2023-01-03T18:03:33.044Z,67.11
2023-01-03T18:06:05.891Z,67.33
2023-01-03T18:08:34.223Z,67.71
2023-01-03T18:11:02.097Z,67.21
2023-01-03T18:13:33.662Z,67.14
2023-01-03T18:16:01.661Z,67.33
2023-01-03T18:18:30.221Z,67.60
2023-01-03T18:21:00.805Z,67.90
2023-01-03T18:23:31.704Z,67.62
2023-01-03T18:26:02.432Z,67.63
2023-01-03T18:28:30.371Z,67.68
2023-01-03T18:30:59.088Z,67.66
2023-01-03T18:33:27.095Z,67.48
2023-01-03T18:35:55.335Z,67.33
2023-01-03T18:38:30.634Z,67.64
2023-01-03T18:41:04.388Z,67.39
2023-01-03T18:43:33.283Z,67.44
2023-01-03T18:46:01.279Z,67.67
2023-01-03T18:48:29.281Z,67.50
2023-01-03T18:50:59.319Z,67.64
2023-01-03T18:53:32.052Z,67.51
2023-01-03T18:56:00.191Z,67.73
2023-01-03T18:58:33.062Z,67.74
2023-01-03T19:01:01.379Z,67.08
2023-01-03T19:03:31.193Z,66.97
2023-01-03T19:06:00.479Z,66.90
2023-01-03T19:08:33.535Z,67.23
2023-01-03T19:11:06.949Z,67.20
2023-01-03T19:13:50.305Z,67.19
2023-01-03T19:16:20.495Z,67.20
2023-01-03T19:18:49.150Z,67.05
2023-01-03T19:21:18.054Z,67.38
2023-01-03T19:23:51.550Z,67.17
2023-01-03T19:26:29.507Z,67.18
2023-01-03T19:29:01.506Z,66.73
2023-01-03T19:31:31.778Z,66.19
2023-01-03T19:33:59.771Z,65.85
2023-01-03T19:36:27.616Z,65.65
2023-01-03T19:38:56.772Z,65.73
2023-01-03T19:41:24.522Z,65.67
2023-01-03T19:43:52.297Z,65.72
2023-01-03T19:46:20.324Z,65.97
2023-01-03T19:48:48.155Z,65.95
2023-01-03T19:51:15.989Z,65.99
2023-01-03T19:53:43.822Z,66.26
2023-01-03T19:56:23.959Z,66.47
2023-01-03T19:58:54.495Z,66.38
2023-01-03T20:01:25.821Z,66.32
2023-01-03T20:03:53.941Z,66.43
2023-01-03T20:06:22.009Z,66.46
2023-01-03T20:08:49.908Z,66.64
2023-01-03T20:11:21.134Z,66.73
2023-01-03T20:13:49.296Z,66.36
2023-01-03T20:16:17.651Z,66.60
2023-01-03T20:18:45.603Z,66.77
2023-01-03T20:21:22.568Z,66.77
2023-01-03T20:23:54.131Z,66.73
2023-01-03T20:26:26.655Z,66.79
2023-01-03T20:28:56.064Z,66.95
2023-01-03T20:31:24.157Z,66.89
2023-01-03T20:33:52.255Z,66.69
2023-01-03T20:36:23.888Z,66.88
2023-01-03T20:38:55.921Z,66.93
2023-01-03T20:41:36.380Z,67.07
2023-01-03T20:44:04.726Z,67.07
2023-01-03T20:46:32.594Z,67.02
2023-01-03T20:49:03.352Z,67.00
2023-01-03T20:51:32.768Z,66.97
2023-01-03T20:54:00.645Z,66.99
2023-01-03T20:56:32.866Z,67.04
2023-01-03T20:59:00.740Z,66.95
2023-01-03T21:01:28.692Z,67.10
2023-01-03T21:03:56.770Z,67.31
2023-01-03T21:06:29.502Z,67.15
2023-01-03T21:08:57.953Z,67.71
2023-01-03T21:11:28.036Z,67.22
2023-01-03T21:13:58.946Z,67.05
2023-01-03T21:16:33.262Z,67.52
2023-01-03T21:19:07.516Z,67.31
2023-01-03T21:21:36.055Z,67.12
2023-01-03T21:24:04.709Z,66.98
2023-01-03T21:26:32.478Z,67.10
2023-01-03T21:29:01.695Z,67.18
2023-01-03T21:31:29.568Z,67.28
2023-01-03T21:33:57.690Z,67.30
2023-01-03T21:36:28.760Z,67.39
2023-01-03T21:38:56.863Z,67.33
2023-01-03T21:41:26.763Z,67.03
2023-01-03T21:43:56.636Z,67.25
2023-01-03T21:46:26.831Z,67.40
2023-01-03T21:48:55.387Z,67.38
2023-01-03T21:51:33.462Z,67.23
2023-01-03T21:54:05.673Z,67.21
2023-01-03T21:56:33.501Z,66.77
2023-01-03T21:59:01.265Z,67.02
2023-01-03T22:01:50.554Z,67.33
2023-01-03T22:04:20.205Z,67.38
2023-01-03T22:06:48.032Z,67.11
2023-01-03T22:09:29.811Z,67.12
2023-01-03T22:11:57.646Z,67.46
2023-01-03T22:14:25.516Z,67.08
2023-01-03T22:16:54.791Z,67.23
2023-01-03T22:19:22.641Z,67.20
2023-01-03T22:21:50.424Z,66.97
2023-01-03T22:24:18.208Z,66.97
2023-01-03T22:26:46.204Z,67.04
2023-01-03T22:29:13.991Z,66.98
2023-01-03T22:31:41.884Z,67.33
2023-01-03T22:34:11.158Z,66.96
2023-01-03T22:36:38.982Z,67.20
2023-01-03T22:39:06.858Z,67.07
2023-01-03T22:41:34.733Z,67.05
2023-01-03T22:44:02.539Z,67.09
2023-01-03T22:46:30.478Z,67.41
2023-01-03T22:48:58.386Z,67.28
2023-01-03T22:51:27.600Z,67.19
2023-01-03T22:53:55.396Z,67.50
2023-01-03T22:56:23.198Z,67.41
2023-01-03T22:58:51.087Z,67.56
2023-01-03T23:01:22.715Z,67.67
2023-01-03T23:03:50.751Z,67.76
2023-01-03T23:06:21.021Z,67.44
2023-01-03T23:08:51.430Z,67.62
2023-01-03T23:11:39.378Z,67.35
2023-01-03T23:14:09.060Z,67.74
2023-01-03T23:16:36.946Z,67.50
2023-01-03T23:19:06.274Z,67.57
2023-01-03T23:21:34.438Z,67.57
2023-01-03T23:24:04.409Z,68.04
2023-01-03T23:26:32.315Z,67.60
2023-01-03T23:29:01.354Z,67.74
2023-01-03T23:31:29.510Z,68.00
2023-01-03T23:33:58.135Z,68.08
2023-01-03T23:36:26.736Z,67.78
2023-01-03T23:38:54.882Z,67.73
2023-01-03T23:41:24.059Z,68.26
2023-01-03T23:43:52.721Z,68.20
2023-01-03T23:46:22.476Z,68.20
2023-01-03T23:48:54.572Z,68.02
2023-01-03T23:51:22.431Z,68.46
2023-01-03T23:53:50.201Z,68.52
2023-01-03T23:56:19.609Z,68.79
2023-01-03T23:58:48.944Z,68.56
